Time;durP1;ratioP1;P1;durP2;ratioP2;P2;SDS_P1;SDS_P2;PMS_P1;PMS_P2;Temp;Humidity;BMP_temperature;BMP_pressure;BME280_temperature;BME280_humidity;BME280_pressure;Samples;Min_cycle;Max_cycle;Signal;HPM_P1;HPM_P2
2023/04/17 00:01:46;;;;;;;29.65;16.10;;;9.30;71.10;;;;;;4807088;29;20053;-94
2023/04/17 00:04:13;;;;;;;26.35;14.38;;;9.30;71.30;;;;;;4792359;29;20137;-93
2023/04/17 00:06:44;;;;;;;27.00;14.13;;;9.20;71.00;;;;;;4809829;29;20058;-94
2023/04/17 00:09:11;;;;;;;25.25;15.45;;;9.20;71.70;;;;;;4809730;29;20130;-94
2023/04/17 00:11:39;;;;;;;25.93;15.20;;;9.20;71.30;;;;;;4825731;29;20550;-93
2023/04/17 00:14:06;;;;;;;25.27;14.43;;;9.10;71.00;;;;;;4824951;29;20070;-94
2023/04/17 00:16:33;;;;;;;24.40;14.27;;;9.10;71.00;;;;;;4794525;29;20134;-93
2023/04/17 00:19:00;;;;;;;25.40;14.32;;;9.00;70.60;;;;;;4824850;29;20050;-93
2023/04/17 00:21:28;;;;;;;24.88;13.88;;;8.80;71.00;;;;;;4809524;29;20078;-93
2023/04/17 00:23:55;;;;;;;25.03;14.43;;;8.90;71.10;;;;;;4809781;29;20501;-93
2023/04/17 00:26:23;;;;;;;28.73;15.73;;;8.90;71.00;;;;;;4793901;29;20480;-92
2023/04/17 00:28:50;;;;;;;29.20;16.92;;;8.70;72.30;;;;;;4809294;29;20057;-93
2023/04/17 00:31:17;;;;;;;30.63;15.75;;;8.60;73.00;;;;;;4809499;29;20473;-92
2023/04/17 00:33:45;;;;;;;26.30;15.57;;;8.50;73.30;;;;;;4794448;29;20050;-93
2023/04/17 00:36:14;;;;;;;27.73;15.73;;;8.50;72.70;;;;;;4809386;29;20051;-92
2023/04/17 00:38:41;;;;;;;30.02;16.02;;;8.50;72.70;;;;;;4809611;29;20051;-93
2023/04/17 00:41:08;;;;;;;35.15;18.13;;;8.30;73.60;;;;;;4809301;29;20046;-93
2023/04/17 00:43:35;;;;;;;31.13;16.60;;;8.30;74.10;;;;;;4809341;29;20406;-92
2023/04/17 00:46:06;;;;;;;28.75;16.05;;;8.40;73.70;;;;;;4794376;29;20051;-92
2023/04/17 00:48:35;;;;;;;30.37;16.50;;;8.40;73.30;;;;;;4809242;29;20065;-92
2023/04/17 00:51:03;;;;;;;25.10;14.10;;;8.40;73.10;;;;;;4809334;29;20585;-93
2023/04/17 00:53:31;;;;;;;32.22;15.80;;;8.40;72.80;;;;;;4824484;29;20064;-92
2023/04/17 00:56:02;;;;;;;27.10;15.15;;;8.30;72.70;;;;;;4809277;29;20050;-92
2023/04/17 00:58:30;;;;;;;29.90;16.02;;;8.30;73.00;;;;;;4809173;29;20055;-91
2023/04/17 01:00:57;;;;;;;28.43;15.90;;;8.30;73.40;;;;;;4809840;29;20494;-92
2023/04/17 01:03:24;;;;;;;33.35;16.67;;;8.30;72.80;;;;;;4824272;29;20050;-93
2023/04/17 01:05:51;;;;;;;31.08;16.30;;;8.30;73.90;;;;;;4809108;29;20054;-91
2023/04/17 01:08:18;;;;;;;27.70;14.60;;;8.20;73.60;;;;;;4809322;29;20058;-93
2023/04/17 01:10:46;;;;;;;27.27;15.55;;;8.00;72.40;;;;;;4809155;29;20429;-91
2023/04/17 01:13:13;;;;;;;27.93;15.63;;;8.00;73.10;;;;;;4809366;29;20598;-93
2023/04/17 01:15:42;;;;;;;25.83;14.75;;;8.00;73.40;;;;;;4809055;29;20046;-92
2023/04/17 01:18:09;;;;;;;26.75;15.75;;;7.90;73.10;;;;;;4809074;29;20054;-92
2023/04/17 01:20:36;;;;;;;27.20;15.13;;;7.90;73.30;;;;;;4809324;29;20046;-92
2023/04/17 01:23:03;;;;;;;25.92;15.10;;;8.00;73.00;;;;;;4824261;29;20051;-93
2023/04/17 01:25:30;;;;;;;25.63;14.30;;;8.00;73.00;;;;;;4794450;29;20194;-92
2023/04/17 01:27:58;;;;;;;29.05;14.00;;;7.90;73.00;;;;;;4809055;29;20111;-93
2023/04/17 01:30:26;;;;;;;28.60;14.30;;;7.90;73.00;;;;;;4809481;29;20110;-91
2023/04/17 01:32:59;;;;;;;27.02;13.55;;;7.90;73.30;;;;;;4809102;29;20077;-93
2023/04/17 01:35:27;;;;;;;26.92;14.05;;;7.90;73.60;;;;;;4808700;29;20053;-92
2023/04/17 01:37:55;;;;;;;24.17;12.50;;;7.90;73.50;;;;;;4811219;29;20082;-92
2023/04/17 01:40:32;;;;;;;22.00;12.82;;;7.80;73.10;;;;;;4812417;29;20123;-92
2023/04/17 01:43:21;;;;;;;24.48;11.63;;;7.80;73.00;;;;;;4812208;29;20361;-93
2023/04/17 01:45:49;;;;;;;25.25;12.82;;;7.80;72.80;;;;;;4812384;29;20054;-93
2023/04/17 01:48:49;;;;;;;23.95;13.45;;;7.70;72.90;;;;;;4812119;29;20086;-91
2023/04/17 01:51:16;;;;;;;23.40;12.17;;;7.60;73.70;;;;;;4812190;29;20541;-92
2023/04/17 01:53:59;;;;;;;22.85;12.32;;;7.60;73.70;;;;;;4811999;29;20102;-92
2023/04/17 01:56:45;;;;;;;24.38;12.50;;;7.60;73.30;;;;;;4814784;29;20119;-93
2023/04/17 01:59:12;;;;;;;22.58;11.73;;;7.60;73.80;;;;;;4811593;29;20050;-92
2023/04/17 02:05:18;;;;;;;22.97;12.07;;;7.60;73.80;;;;;;1533625;24;20459;-90
2023/04/17 02:07:48;;;;;;;19.50;11.23;;;7.60;74.10;;;;;;4774548;30;20063;-92
2023/04/17 02:10:15;;;;;;;21.95;10.95;;;7.70;73.10;;;;;;4791167;29;20056;-92
2023/04/17 02:12:42;;;;;;;24.70;11.32;;;7.50;72.90;;;;;;4790779;29;20075;-92
2023/04/17 02:15:12;;;;;;;22.17;10.93;;;7.50;72.90;;;;;;4790781;29;20084;-93
2023/04/17 02:17:46;;;;;;;19.93;11.57;;;7.50;73.00;;;;;;4790982;29;20497;-93
2023/04/17 02:20:14;;;;;;;25.60;11.57;;;7.50;72.30;;;;;;4791374;29;20050;-93
2023/04/17 02:22:42;;;;;;;21.17;11.35;;;7.50;72.70;;;;;;4776193;30;20047;-94
2023/04/17 02:25:09;;;;;;;22.67;11.20;;;7.50;72.30;;;;;;4790791;29;20049;-93
2023/04/17 02:27:39;;;;;;;22.85;11.68;;;7.40;72.30;;;;;;4775771;30;20047;-93
2023/04/17 02:30:07;;;;;;;23.10;12.67;;;7.30;72.70;;;;;;4805616;29;20051;-94
2023/04/17 02:32:35;;;;;;;25.10;12.43;;;7.30;72.90;;;;;;4790825;29;20082;-93
2023/04/17 02:35:06;;;;;;;22.88;12.32;;;7.40;72.50;;;;;;4790681;29;20058;-93
2023/04/17 02:37:35;;;;;;;21.40;11.98;;;7.30;72.50;;;;;;4791451;29;20058;-93
2023/04/17 02:40:06;;;;;;;25.20;12.15;;;7.20;73.00;;;;;;4790662;29;20055;-93
2023/04/17 02:42:36;;;;;;;23.57;11.87;;;7.20;73.20;;;;;;4761291;30;20413;-92
2023/04/17 02:45:04;;;;;;;27.55;13.18;;;7.20;72.60;;;;;;4794516;29;20056;-93
2023/04/17 02:47:31;;;;;;;24.77;13.70;;;7.00;73.30;;;;;;4790201;29;20051;-93
2023/04/17 02:50:09;;;;;;;26.77;14.77;;;7.00;74.20;;;;;;4776018;30;20061;-93
2023/04/17 02:56:58;;;;;;;27.27;14.03;;;7.10;73.80;;;;;;4791372;30;20583;-92
2023/04/17 02:59:25;;;;;;;26.45;14.77;;;7.00;74.80;;;;;;4805223;29;20054;-92
2023/04/17 03:01:53;;;;;;;28.38;15.35;;;7.00;74.70;;;;;;4775166;30;20043;-92
2023/04/17 03:04:20;;;;;;;29.02;15.02;;;7.10;75.10;;;;;;4790096;29;20064;-92
2023/04/17 03:06:48;;;;;;;27.33;14.48;;;7.10;74.40;;;;;;4790138;29;20063;-93
2023/04/17 03:09:26;;;;;;;29.70;15.33;;;7.10;73.60;;;;;;4789685;29;20059;-92
2023/04/17 03:11:53;;;;;;;32.88;16.30;;;7.10;73.70;;;;;;4790168;29;20056;-92
2023/04/17 03:14:20;;;;;;;28.50;15.18;;;7.00;74.60;;;;;;4789712;29;20062;-92
2023/04/17 03:16:47;;;;;;;27.77;14.13;;;7.00;74.40;;;;;;4790164;29;20513;-92
2023/04/17 03:19:15;;;;;;;25.77;14.65;;;7.00;73.70;;;;;;4789909;29;20108;-93
2023/04/17 03:21:42;;;;;;;31.50;15.33;;;7.00;73.60;;;;;;4789818;29;20100;-94
2023/04/17 03:24:11;;;;;;;30.33;15.32;;;7.00;74.30;;;;;;4790099;29;20436;-92
2023/04/17 03:26:38;;;;;;;28.63;15.27;;;7.00;74.90;;;;;;4759960;30;20073;-93
2023/04/17 03:29:13;;;;;;;27.83;15.43;;;7.00;75.20;;;;;;4789782;29;20051;-92
2023/04/17 03:31:40;;;;;;;35.33;17.17;;;7.10;75.70;;;;;;4789213;29;20047;-92
2023/04/17 03:34:08;;;;;;;32.63;18.03;;;7.20;75.60;;;;;;4804609;29;20066;-92
2023/04/17 03:36:35;;;;;;;30.10;16.83;;;7.10;76.60;;;;;;4789701;29;20580;-93
2023/04/17 03:39:06;;;;;;;35.45;19.38;;;7.20;77.10;;;;;;4789353;29;20052;-92
2023/04/17 03:41:34;;;;;;;38.03;19.73;;;7.20;78.20;;;;;;4789159;29;20077;-92
2023/04/17 03:44:04;;;;;;;36.83;19.15;;;7.20;79.00;;;;;;4789244;29;20047;-92
2023/04/17 03:46:38;;;;;;;32.47;17.83;;;7.20;79.00;;;;;;4789538;29;20051;-92
2023/04/17 03:49:06;;;;;;;34.22;16.85;;;7.20;78.70;;;;;;4789345;29;20100;-92
2023/04/17 03:51:33;;;;;;;32.97;18.50;;;7.40;78.30;;;;;;4789306;29;20505;-91
2023/04/17 03:54:09;;;;;;;32.47;17.35;;;7.40;78.70;;;;;;4790319;29;20417;-91
2023/04/17 03:56:36;;;;;;;34.20;18.13;;;7.50;78.40;;;;;;4789046;29;20412;-90
2023/04/17 03:59:04;;;;;;;29.27;16.90;;;7.60;78.40;;;;;;4788966;29;20138;-92
2023/04/17 04:01:37;;;;;;;38.20;19.67;;;7.60;78.30;;;;;;4789818;29;20055;-91
2023/04/17 04:04:13;;;;;;;38.85;20.35;;;7.70;78.30;;;;;;4790224;29;20149;-92
2023/04/17 04:06:41;;;;;;;34.05;19.02;;;7.70;78.70;;;;;;4788738;29;20063;-92
2023/04/17 04:09:13;;;;;;;36.92;19.60;;;7.80;78.50;;;;;;4789595;29;20057;-92
2023/04/17 04:11:41;;;;;;;35.00;19.37;;;7.80;78.90;;;;;;4803585;29;20133;-92
2023/04/17 04:14:08;;;;;;;35.72;20.15;;;7.90;79.00;;;;;;4774206;30;20131;-92
2023/04/17 04:16:36;;;;;;;37.63;20.13;;;7.90;79.10;;;;;;4788765;29;20039;-92
2023/04/17 04:19:10;;;;;;;34.67;18.35;;;8.00;79.20;;;;;;4789601;29;20075;-92
2023/04/17 04:21:38;;;;;;;34.08;18.38;;;8.00;79.20;;;;;;4803612;29;20293;-92
2023/04/17 04:24:08;;;;;;;35.77;19.87;;;8.00;79.50;;;;;;4788668;29;20070;-93
2023/04/17 04:26:39;;;;;;;33.35;17.90;;;8.00;79.60;;;;;;4788473;29;20088;-93
2023/04/17 04:29:08;;;;;;;39.60;19.40;;;8.00;79.70;;;;;;4788725;29;20052;-92
2023/04/17 04:31:50;;;;;;;37.25;19.80;;;8.10;79.80;;;;;;4790996;29;20067;-93
2023/04/17 04:34:24;;;;;;;40.00;20.85;;;8.10;79.70;;;;;;4774228;30;20089;-92
2023/04/17 04:36:52;;;;;;;37.17;19.50;;;8.20;79.80;;;;;;4788717;29;20044;-93
2023/04/17 04:39:39;;;;;;;38.15;20.48;;;8.20;79.70;;;;;;4774957;30;20417;-93
2023/04/17 04:42:08;;;;;;;38.40;19.65;;;8.30;79.70;;;;;;4788888;29;20051;-93
2023/04/17 04:44:53;;;;;;;38.55;19.88;;;8.30;79.60;;;;;;4790520;29;20130;-93
2023/04/17 04:47:24;;;;;;;37.30;18.98;;;8.40;79.60;;;;;;4788706;29;20531;-93
2023/04/17 04:49:53;;;;;;;35.93;21.00;;;8.40;79.50;;;;;;4788835;29;20066;-94
2023/04/17 04:52:21;;;;;;;42.35;20.50;;;8.40;79.40;;;;;;4773952;30;20120;-93
2023/04/17 04:54:52;;;;;;;40.58;20.13;;;8.40;79.10;;;;;;4759288;30;20056;-94
2023/04/17 04:57:21;;;;;;;44.03;22.42;;;8.50;79.20;;;;;;4789064;29;20116;-93
2023/04/17 04:59:52;;;;;;;39.05;20.77;;;8.40;79.70;;;;;;4788919;29;20158;-93
2023/04/17 05:02:41;;;;;;;39.70;21.27;;;8.40;79.80;;;;;;4791315;29;20059;-93
2023/04/17 05:05:11;;;;;;;41.00;21.60;;;8.40;79.70;;;;;;4803377;29;20112;-93
2023/04/17 05:07:41;;;;;;;78.50;43.78;;;8.50;80.00;;;;;;4788956;29;20059;-93
2023/04/17 05:10:17;;;;;;;46.63;24.50;;;8.40;80.10;;;;;;4788620;29;20569;-93
2023/04/17 05:13:20;;;;;;;47.03;24.38;;;8.50;80.10;;;;;;4776688;30;20055;-92
2023/04/17 05:15:48;;;;;;;38.87;20.17;;;8.50;80.50;;;;;;4792190;29;20059;-93
2023/04/17 05:18:23;;;;;;;46.55;23.17;;;8.50;80.20;;;;;;4762348;30;20062;-92
2023/04/17 05:20:53;;;;;;;44.72;23.48;;;8.50;80.20;;;;;;4762659;30;20086;-92
2023/04/17 05:23:27;;;;;;;38.75;20.90;;;8.50;80.80;;;;;;4792776;29;20054;-92
2023/04/17 05:25:57;;;;;;;46.92;24.65;;;8.30;81.10;;;;;;4791656;29;20051;-92
2023/04/17 05:28:26;;;;;;;39.77;21.27;;;8.40;81.80;;;;;;4791710;29;20138;-93
2023/04/17 05:30:59;;;;;;;43.72;21.52;;;8.40;81.40;;;;;;4791732;29;20055;-93
2023/04/17 05:33:36;;;;;;;42.58;22.70;;;8.40;81.40;;;;;;4793890;29;20053;-94
2023/04/17 05:36:09;;;;;;;44.47;22.15;;;8.40;81.00;;;;;;4777015;30;20093;-93
2023/04/17 05:38:39;;;;;;;51.38;26.23;;;8.40;81.20;;;;;;4792086;29;20487;-93
2023/04/17 05:41:10;;;;;;;44.23;22.63;;;8.40;81.40;;;;;;4791665;29;20572;-92
2023/04/17 05:43:37;;;;;;;50.13;26.73;;;8.40;81.30;;;;;;4791307;29;20047;-93
2023/04/17 05:46:05;;;;;;;49.22;26.55;;;8.30;81.70;;;;;;4791757;29;20059;-92
2023/04/17 05:48:32;;;;;;;44.72;24.02;;;8.40;81.90;;;;;;4791272;29;20051;-92
2023/04/17 05:51:02;;;;;;;41.90;24.08;;;8.50;81.50;;;;;;4791679;29;20058;-93
2023/04/17 05:53:32;;;;;;;47.83;25.20;;;8.50;81.50;;;;;;4793598;29;20051;-92
2023/04/17 05:56:00;;;;;;;52.88;25.75;;;8.60;81.80;;;;;;4791978;29;20134;-91
2023/04/17 05:58:29;;;;;;;49.55;23.38;;;8.60;81.40;;;;;;4791761;29;20067;-91
2023/04/17 06:00:57;;;;;;;48.92;24.45;;;8.70;80.90;;;;;;4791743;29;20128;-91
2023/04/17 06:03:26;;;;;;;49.08;23.90;;;8.70;81.30;;;;;;4791828;29;20059;-91
2023/04/17 06:06:08;;;;;;;48.97;23.93;;;8.80;81.00;;;;;;4793212;29;20067;-91
2023/04/17 06:08:35;;;;;;;55.45;26.52;;;8.80;80.80;;;;;;4793375;29;20134;-91
2023/04/17 06:11:04;;;;;;;56.40;28.55;;;8.80;80.50;;;;;;4794776;29;20047;-94
2023/04/17 06:13:32;;;;;;;55.13;29.17;;;9.00;80.80;;;;;;4803606;29;20051;-93
2023/04/17 06:16:09;;;;;;;56.42;29.60;;;9.00;80.60;;;;;;4802589;30;20059;-94
2023/04/17 06:18:41;;;;;;;61.53;30.77;;;9.00;80.30;;;;;;4775015;30;20053;-94
2023/04/17 06:21:23;;;;;;;60.97;29.00;;;9.10;80.20;;;;;;4796635;30;20123;-93
2023/04/17 06:23:50;;;;;;;55.72;27.45;;;9.20;79.60;;;;;;4776234;30;20055;-93
2023/04/17 06:26:18;;;;;;;50.35;25.77;;;9.20;79.40;;;;;;4776475;30;20043;-94
2023/04/17 06:28:46;;;;;;;55.63;27.10;;;9.20;79.50;;;;;;4790473;30;20055;-87
2023/04/17 06:31:13;;;;;;;48.47;24.83;;;9.20;79.90;;;;;;4775303;30;20501;-88
2023/04/17 06:33:41;;;;;;;52.45;26.27;;;9.30;79.80;;;;;;4790306;29;20047;-89
2023/04/17 06:36:08;;;;;;;52.25;27.05;;;9.30;79.40;;;;;;4790043;30;20051;-87
2023/04/17 06:38:46;;;;;;;56.72;28.52;;;9.30;79.30;;;;;;4767382;30;20047;-93
2023/04/17 06:41:18;;;;;;;58.55;27.38;;;9.30;79.70;;;;;;4798028;29;20138;-87
2023/04/17 06:43:45;;;;;;;58.07;26.70;;;9.30;79.30;;;;;;4786227;29;20413;-89
2023/04/17 06:46:16;;;;;;;52.85;25.35;;;9.10;79.50;;;;;;4811233;29;20043;-91
2023/04/17 06:48:44;;;;;;;51.13;25.08;;;9.20;79.80;;;;;;4805771;29;20075;-91
2023/04/17 06:51:11;;;;;;;60.65;27.90;;;9.20;79.60;;;;;;4790883;29;20074;-92
2023/04/17 06:53:38;;;;;;;56.10;27.77;;;9.20;80.50;;;;;;4805267;29;20047;-91
2023/04/17 06:56:05;;;;;;;57.10;28.37;;;9.20;80.00;;;;;;4805490;29;20051;-91
2023/04/17 06:58:40;;;;;;;53.15;24.77;;;9.20;80.20;;;;;;4805421;29;20123;-92
2023/04/17 07:01:07;;;;;;;49.83;24.20;;;9.30;80.00;;;;;;4790329;29;20047;-90
2023/04/17 07:03:34;;;;;;;51.70;27.23;;;9.30;80.20;;;;;;4804873;29;20190;-91
2023/04/17 07:06:02;;;;;;;50.38;24.58;;;9.20;80.00;;;;;;4804713;29;20090;-90
2023/04/17 07:08:32;;;;;;;51.73;25.03;;;9.30;80.00;;;;;;4789489;30;20063;-93
2023/04/17 07:11:00;;;;;;;48.60;22.80;;;9.30;79.90;;;;;;4804558;29;20059;-91
2023/04/17 07:13:30;;;;;;;47.50;22.42;;;9.30;79.90;;;;;;4789657;29;20498;-91
2023/04/17 07:15:58;;;;;;;54.63;24.05;;;9.40;80.00;;;;;;4804806;29;20059;-91
2023/04/17 07:18:25;;;;;;;52.20;23.73;;;9.40;80.40;;;;;;4813405;29;20375;-90
2023/04/17 07:20:52;;;;;;;54.20;25.60;;;9.50;79.80;;;;;;4793031;29;20137;-91
2023/04/17 07:23:19;;;;;;;48.17;23.33;;;9.50;80.00;;;;;;4792564;29;20062;-91
2023/04/17 07:25:47;;;;;;;55.42;25.50;;;9.50;79.70;;;;;;4793124;29;20053;-91
2023/04/17 07:28:14;;;;;;;54.80;25.52;;;9.40;79.60;;;;;;4788851;29;20146;-90
2023/04/17 07:30:41;;;;;;;54.55;23.35;;;9.40;79.60;;;;;;4774187;30;20146;-90
2023/04/17 07:33:09;;;;;;;51.40;25.67;;;9.40;79.80;;;;;;4784169;29;20055;-91
2023/04/17 07:35:36;;;;;;;50.40;22.70;;;9.40;80.10;;;;;;4773149;29;20058;-90
2023/04/17 07:38:04;;;;;;;56.28;26.75;;;9.30;80.00;;;;;;4786308;30;20150;-92
2023/04/17 07:40:36;;;;;;;52.58;25.60;;;9.40;80.30;;;;;;4786425;30;20054;-91
2023/04/17 07:43:04;;;;;;;59.28;28.15;;;9.40;80.20;;;;;;4786319;29;20051;-91
2023/04/17 07:45:32;;;;;;;54.23;26.27;;;9.50;80.20;;;;;;4771815;30;20055;-91
2023/04/17 07:47:59;;;;;;;55.60;26.63;;;9.50;80.00;;;;;;4786282;30;20059;-91
2023/04/17 07:50:27;;;;;;;54.95;25.48;;;9.40;80.00;;;;;;4771156;30;20074;-91
2023/04/17 07:52:54;;;;;;;52.95;25.98;;;9.50;80.10;;;;;;4786194;30;20409;-92
2023/04/17 07:55:21;;;;;;;56.03;27.05;;;9.50;80.30;;;;;;4785882;30;20059;-92
2023/04/17 07:57:50;;;;;;;59.60;27.23;;;9.50;80.50;;;;;;4791840;29;20076;-92
2023/04/17 08:00:17;;;;;;;56.97;26.13;;;9.50;80.90;;;;;;4781334;29;20144;-91
2023/04/17 08:02:44;;;;;;;53.45;25.98;;;9.50;80.70;;;;;;4788350;29;20504;-91
2023/04/17 08:05:12;;;;;;;58.72;27.60;;;9.50;80.90;;;;;;4788012;29;20078;-91
2023/04/17 08:07:42;;;;;;;61.50;26.40;;;9.60;80.70;;;;;;4781050;29;20512;-95
2023/04/17 08:10:09;;;;;;;51.20;24.27;;;9.60;81.00;;;;;;4782416;29;20052;-86
2023/04/17 08:12:36;;;;;;;54.10;24.90;;;9.70;80.80;;;;;;4774167;30;20055;-91
2023/04/17 08:15:04;;;;;;;55.72;26.85;;;9.70;80.20;;;;;;4773868;30;20058;-94
2023/04/17 08:17:32;;;;;;;55.67;25.75;;;9.70;80.10;;;;;;4775077;30;20049;-93
2023/04/17 08:20:09;;;;;;;56.63;25.10;;;9.70;80.20;;;;;;4788884;29;20520;-90
2023/04/17 08:22:41;;;;;;;55.67;26.10;;;9.80;80.70;;;;;;4807197;29;20052;-91
2023/04/17 08:25:09;;;;;;;56.67;25.58;;;9.70;80.80;;;;;;4777159;29;20047;-91
2023/04/17 08:27:39;;;;;;;52.65;25.13;;;9.70;80.60;;;;;;4766757;29;20057;-91
2023/04/17 08:30:08;;;;;;;52.28;24.60;;;9.70;81.00;;;;;;4784124;29;20043;-91
2023/04/17 08:32:40;;;;;;;51.60;24.30;;;9.80;81.30;;;;;;4775067;29;20079;-91
2023/04/17 08:35:10;;;;;;;56.20;24.37;;;9.80;81.10;;;;;;4773211;29;20050;-91
2023/04/17 08:37:41;;;;;;;54.78;22.17;;;9.80;81.50;;;;;;4788095;29;20043;-91
2023/04/17 08:40:08;;;;;;;49.53;22.10;;;9.80;81.70;;;;;;4776459;29;20049;-90
2023/04/17 08:42:36;;;;;;;52.00;22.90;;;9.80;81.70;;;;;;4799964;29;20074;-91
2023/04/17 08:45:08;;;;;;;49.13;22.08;;;9.70;82.10;;;;;;4774350;30;20139;-92
2023/04/17 08:47:40;;;;;;;56.27;23.80;;;9.80;82.00;;;;;;4820504;29;20054;-92
2023/04/17 08:50:18;;;;;;;54.08;23.65;;;9.80;82.00;;;;;;4776983;29;20050;-91
2023/04/17 08:52:47;;;;;;;52.83;24.95;;;9.80;82.00;;;;;;4785310;29;20062;-90
2023/04/17 08:55:20;;;;;;;55.17;25.48;;;9.80;82.10;;;;;;4782498;29;20051;-89
2023/04/17 08:57:57;;;;;;;60.25;26.35;;;9.70;82.10;;;;;;4782754;29;20043;-89
2023/04/17 09:00:28;;;;;;;61.23;27.93;;;9.70;82.20;;;;;;4782476;29;20054;-88
2023/04/17 09:02:57;;;;;;;53.60;26.27;;;9.70;82.40;;;;;;4802489;29;20054;-88
2023/04/17 09:05:29;;;;;;;58.83;27.80;;;9.70;82.10;;;;;;4784641;29;20054;-89
2023/04/17 09:08:19;;;;;;;54.75;27.58;;;9.70;82.10;;;;;;4793196;29;20062;-89
2023/04/17 09:10:54;;;;;;;59.80;27.60;;;9.70;82.40;;;;;;4782310;29;20095;-88
2023/04/17 09:13:24;;;;;;;60.87;29.07;;;9.90;82.20;;;;;;4787610;29;20055;-89
2023/04/17 09:16:20;;;;;;;51.63;26.17;;;9.90;82.30;;;;;;4784625;29;20111;-88
2023/04/17 09:18:48;;;;;;;57.05;28.15;;;10.00;82.00;;;;;;4790592;29;20050;-89
2023/04/17 09:21:21;;;;;;;53.28;25.00;;;10.10;81.70;;;;;;4785244;29;20096;-91
2023/04/17 09:23:57;;;;;;;48.17;25.17;;;10.20;81.50;;;;;;4786489;29;20067;-90
2023/04/17 09:26:26;;;;;;;45.57;23.23;;;10.20;81.40;;;;;;4806343;29;20052;-89
2023/04/17 09:29:03;;;;;;;47.38;22.63;;;10.30;81.30;;;;;;4806080;29;20123;-90
2023/04/17 09:31:35;;;;;;;47.15;23.38;;;10.30;81.10;;;;;;4805882;29;20055;-89
2023/04/17 09:34:04;;;;;;;47.85;24.02;;;10.30;81.40;;;;;;4806062;29;20062;-90
2023/04/17 09:36:33;;;;;;;47.17;22.90;;;10.40;81.20;;;;;;4806016;29;20051;-89
2023/04/17 09:39:03;;;;;;;44.77;22.93;;;10.50;81.20;;;;;;4805608;29;20158;-89
2023/04/17 09:41:38;;;;;;;43.72;21.33;;;10.60;80.80;;;;;;4805542;29;20100;-89
2023/04/17 09:44:05;;;;;;;42.80;20.67;;;10.60;80.20;;;;;;4806275;29;20051;-90
2023/04/17 09:46:46;;;;;;;44.17;20.92;;;10.70;80.80;;;;;;4790933;29;20051;-89
2023/04/17 09:49:32;;;;;;;43.00;20.13;;;10.80;80.40;;;;;;4805772;29;20058;-90
2023/04/17 09:51:59;;;;;;;41.23;19.57;;;10.90;80.00;;;;;;4820739;29;20061;-90
2023/04/17 09:54:30;;;;;;;38.60;18.70;;;11.00;79.60;;;;;;4805588;29;20099;-89
2023/04/17 09:57:01;;;;;;;38.80;18.88;;;11.00;78.70;;;;;;4820302;29;20051;-90
2023/04/17 09:59:30;;;;;;;36.80;18.67;;;11.00;79.20;;;;;;4790264;29;20055;-89
2023/04/17 10:01:57;;;;;;;36.83;17.95;;;10.90;79.20;;;;;;4805576;29;20052;-90
2023/04/17 10:04:24;;;;;;;39.80;19.23;;;11.00;79.40;;;;;;4790435;30;20060;-90
2023/04/17 10:06:51;;;;;;;34.38;18.45;;;11.00;78.70;;;;;;4790493;30;20069;-89
2023/04/17 10:09:18;;;;;;;34.50;18.10;;;11.10;79.40;;;;;;4805394;29;20505;-90
2023/04/17 10:11:46;;;;;;;34.35;17.02;;;11.10;78.50;;;;;;4790373;30;20146;-90
2023/04/17 10:14:20;;;;;;;35.17;17.77;;;11.20;78.60;;;;;;4805602;29;20051;-90
2023/04/17 10:16:48;;;;;;;33.30;16.53;;;11.30;78.30;;;;;;4805839;29;20150;-90
2023/04/17 10:19:32;;;;;;;37.63;19.00;;;11.40;78.00;;;;;;4805085;29;20089;-89
2023/04/17 10:22:14;;;;;;;34.45;18.75;;;11.50;78.60;;;;;;4820415;29;20051;-89
2023/04/17 10:24:42;;;;;;;38.55;18.83;;;11.60;77.40;;;;;;4805564;29;20055;-89
2023/04/17 10:27:25;;;;;;;39.58;19.83;;;11.70;77.50;;;;;;4790086;30;20477;-90
2023/04/17 10:29:57;;;;;;;34.80;17.47;;;12.00;78.30;;;;;;4805343;29;20108;-90
2023/04/17 10:32:26;;;;;;;33.80;17.45;;;12.10;76.30;;;;;;4790023;30;20056;-90
2023/04/17 10:34:59;;;;;;;36.95;17.90;;;12.10;76.40;;;;;;4804943;29;20058;-90
2023/04/17 10:37:50;;;;;;;32.85;17.83;;;12.20;76.80;;;;;;4805064;29;20114;-90
2023/04/17 10:40:20;;;;;;;34.08;17.58;;;12.30;76.10;;;;;;4804808;29;20052;-90
2023/04/17 10:43:22;;;;;;;33.60;17.40;;;12.40;76.10;;;;;;4774810;30;20613;-90
2023/04/17 10:46:04;;;;;;;31.83;17.58;;;12.40;76.00;;;;;;4803505;29;20108;-89
2023/04/17 10:48:36;;;;;;;35.72;18.02;;;12.40;75.60;;;;;;4804885;29;20394;-90
2023/04/17 10:51:26;;;;;;;34.65;16.90;;;12.50;76.40;;;;;;4819629;29;20051;-90
2023/04/17 10:53:57;;;;;;;37.83;18.90;;;12.50;75.50;;;;;;4804621;29;20391;-91
2023/04/17 10:56:26;;;;;;;41.67;20.33;;;12.50;75.80;;;;;;4819684;29;20056;-91
2023/04/17 10:59:01;;;;;;;37.85;19.60;;;12.50;76.30;;;;;;4804402;29;20051;-91
2023/04/17 11:01:41;;;;;;;39.70;20.30;;;12.50;76.60;;;;;;4819702;29;20055;-91
2023/04/17 11:04:09;;;;;;;34.38;18.75;;;12.50;77.20;;;;;;4804434;29;20057;-91
2023/04/17 11:06:40;;;;;;;39.45;21.17;;;12.50;76.50;;;;;;4774238;30;20544;-91
2023/04/17 11:09:09;;;;;;;40.80;21.47;;;12.60;77.50;;;;;;4803787;29;20586;-91
2023/04/17 11:11:39;;;;;;;36.47;19.48;;;12.70;78.30;;;;;;4819384;29;20058;-91
2023/04/17 11:14:17;;;;;;;36.20;19.50;;;12.80;77.70;;;;;;4804805;29;20062;-91
2023/04/17 11:16:46;;;;;;;42.30;21.15;;;12.80;77.00;;;;;;4819480;29;20055;-91
2023/04/17 11:19:32;;;;;;;38.75;19.25;;;12.80;76.80;;;;;;4774550;30;20816;-91
2023/04/17 11:22:01;;;;;;;45.07;23.23;;;12.80;77.20;;;;;;4789134;30;20094;-92
2023/04/17 11:24:31;;;;;;;48.75;24.35;;;12.80;77.90;;;;;;4774377;30;20117;-91
2023/04/17 11:27:00;;;;;;;50.95;25.80;;;12.60;78.50;;;;;;4774331;30;20153;-90
2023/04/17 11:29:29;;;;;;;49.45;25.20;;;12.50;77.90;;;;;;4819531;29;20144;-93
2023/04/17 11:31:57;;;;;;;48.38;24.60;;;12.40;78.50;;;;;;4803953;29;20059;-92
2023/04/17 11:34:25;;;;;;;47.13;26.00;;;12.40;78.00;;;;;;4789067;29;20051;-92
2023/04/17 11:36:56;;;;;;;49.47;25.58;;;12.40;78.10;;;;;;4790046;30;20059;-94
2023/04/17 11:39:25;;;;;;;58.83;27.17;;;12.30;78.00;;;;;;4803998;29;20047;-92
2023/04/17 11:41:53;;;;;;;49.42;25.17;;;12.30;78.30;;;;;;4789348;30;20097;-92
2023/04/17 11:44:20;;;;;;;52.65;26.92;;;12.20;78.30;;;;;;4804125;29;20413;-90
2023/04/17 11:46:55;;;;;;;55.47;26.60;;;12.20;78.50;;;;;;4774141;30;20048;-90
2023/04/17 11:49:45;;;;;;;59.65;27.98;;;12.20;78.90;;;;;;4803895;29;20059;-91
2023/04/17 11:56:28;;;;;;;62.90;30.88;;;12.00;79.70;;;;;;4790256;30;20444;-93
2023/04/17 11:58:57;;;;;;;63.50;31.75;;;12.00;80.80;;;;;;4818524;29;20062;-92
2023/04/17 12:01:27;;;;;;;63.60;30.30;;;12.00;80.70;;;;;;4803642;29;20078;-92
2023/04/17 12:03:58;;;;;;;63.25;30.42;;;11.90;80.90;;;;;;4803768;29;20093;-93
2023/04/17 12:06:37;;;;;;;58.45;29.40;;;11.90;81.20;;;;;;4788920;30;20075;-92
2023/04/17 12:13:40;;;;;;;58.58;28.65;;;12.00;81.40;;;;;;4789666;30;20051;-89
2023/04/17 12:16:07;;;;;;;68.23;32.07;;;11.90;81.40;;;;;;4788550;30;20061;-91
2023/04/17 12:18:35;;;;;;;65.30;31.02;;;11.80;81.80;;;;;;4803158;29;20082;-90
2023/04/17 12:21:10;;;;;;;60.22;31.23;;;11.90;81.70;;;;;;4788219;30;20247;-91
2023/04/17 12:23:37;;;;;;;63.40;31.33;;;11.90;81.80;;;;;;4788538;29;20118;-90
2023/04/17 12:26:05;;;;;;;69.50;34.53;;;11.90;82.10;;;;;;4787906;30;20055;-90
2023/04/17 12:28:32;;;;;;;63.63;32.17;;;11.90;82.20;;;;;;4796375;29;20051;-90
2023/04/17 12:30:59;;;;;;;64.82;31.95;;;11.90;82.20;;;;;;4791325;29;20439;-89
2023/04/17 12:33:26;;;;;;;68.38;32.35;;;12.00;82.30;;;;;;4788170;29;20456;-89
2023/04/17 12:52:56;;;;;;;68.30;30.48;;;12.70;80.30;;;;;;5350102;23;20054;-90
2023/04/17 12:55:27;;;;;;;71.15;32.08;;;12.70;80.20;;;;;;4808884;29;20154;-88
2023/04/17 12:57:54;;;;;;;71.00;31.75;;;12.70;81.00;;;;;;4805165;29;20054;-87
2023/04/17 13:00:21;;;;;;;72.80;32.00;;;12.60;80.90;;;;;;4820331;29;20050;-88
2023/04/17 13:02:48;;;;;;;69.72;32.33;;;12.50;81.80;;;;;;4808941;29;20089;-88
2023/04/17 13:05:16;;;;;;;62.28;30.10;;;12.50;82.10;;;;;;4793965;29;20054;-87
2023/04/17 13:07:43;;;;;;;62.80;30.17;;;12.50;81.60;;;;;;4793805;29;20051;-88
2023/04/17 13:10:10;;;;;;;67.45;31.70;;;12.60;81.60;;;;;;4793836;29;20050;-88
2023/04/17 13:12:37;;;;;;;64.10;30.20;;;12.50;81.50;;;;;;4808866;29;20154;-88
2023/04/17 13:15:04;;;;;;;60.47;29.15;;;12.50;81.30;;;;;;4794228;29;20047;-88
2023/04/17 13:17:31;;;;;;;55.28;27.75;;;12.50;81.10;;;;;;4816048;29;20054;-89
2023/04/17 13:19:59;;;;;;;60.45;28.80;;;12.50;81.60;;;;;;4793576;29;20054;-88
2023/04/17 13:22:26;;;;;;;63.00;30.42;;;12.50;81.60;;;;;;4808678;29;20051;-89
2023/04/17 13:24:53;;;;;;;57.87;27.10;;;12.50;82.00;;;;;;4808396;29;20057;-88